createdAt,value
2018-04-27T00:01:10.617Z,3.90
2018-04-27T00:03:40.541Z,4.03
2018-04-27T00:06:10.870Z,3.63
2018-04-27T00:08:40.847Z,2.90
2018-04-27T00:11:09.980Z,3.10
2018-04-27T00:13:39.904Z,2.90
2018-04-27T00:16:09.060Z,3.10
2018-04-27T00:18:38.221Z,3.50
2018-04-27T00:21:07.348Z,4.20
2018-04-27T00:23:37.290Z,3.77
2018-04-27T00:26:06.419Z,3.80
2018-04-27T00:28:35.603Z,4.00
2018-04-27T00:31:05.494Z,4.00
2018-04-27T00:33:35.401Z,3.63
2018-04-27T00:36:04.567Z,3.50
2018-04-27T00:38:33.700Z,3.77
2018-04-27T00:41:03.614Z,4.10
2018-04-27T00:43:32.746Z,4.30
2018-04-27T00:46:01.887Z,4.20
2018-04-27T00:48:31.039Z,4.00
2018-04-27T00:51:00.973Z,4.17
2018-04-27T00:53:30.110Z,4.30
2018-04-27T00:55:59.271Z,4.40
2018-04-27T00:58:28.448Z,3.23
2018-04-27T01:00:57.632Z,4.03
2018-04-27T01:03:27.581Z,4.10
2018-04-27T01:05:57.745Z,3.20
2018-04-27T01:08:26.971Z,3.85
2018-04-27T01:10:56.909Z,3.83
2018-04-27T01:13:26.074Z,3.20
2018-04-27T01:15:55.984Z,3.50
2018-04-27T01:18:25.901Z,3.33
2018-04-27T01:20:55.814Z,3.50
2018-04-27T01:23:25.152Z,2.90
2018-04-27T01:25:54.335Z,3.30
2018-04-27T01:28:23.470Z,3.30
2018-04-27T01:30:52.657Z,3.40
2018-04-27T01:33:21.797Z,3.60
2018-04-27T01:35:51.702Z,4.03
2018-04-27T01:38:20.856Z,3.07
2018-04-27T01:40:49.995Z,3.60
2018-04-27T01:43:19.139Z,4.20
2018-04-27T01:45:48.257Z,4.12
2018-04-27T01:48:17.413Z,4.00
2018-04-27T01:50:46.533Z,3.30
2018-04-27T01:53:15.677Z,3.33
2018-04-27T01:55:44.810Z,3.30
2018-04-27T01:58:14.721Z,3.30
2018-04-27T02:00:44.933Z,3.20
2018-04-27T02:03:14.056Z,3.47
2018-04-27T02:05:44.873Z,3.70
2018-04-27T02:08:14.772Z,4.20
2018-04-27T02:10:44.111Z,4.17
2018-04-27T02:13:13.194Z,3.53
2018-04-27T02:15:42.327Z,3.10
2018-04-27T02:18:11.464Z,3.87
2018-04-27T02:20:41.369Z,4.07
2018-04-27T02:23:11.356Z,3.70
2018-04-27T02:25:40.470Z,3.60
2018-04-27T02:28:10.132Z,3.90
2018-04-27T02:30:40.048Z,3.60
2018-04-27T02:33:09.181Z,3.53
2018-04-27T02:35:39.108Z,4.00
2018-04-27T02:38:08.295Z,3.60
2018-04-27T02:40:37.362Z,3.90
2018-04-27T02:43:06.536Z,3.70
2018-04-27T02:45:36.448Z,4.03
2018-04-27T02:48:06.413Z,3.90
2018-04-27T02:50:35.508Z,3.50
2018-04-27T02:53:05.478Z,4.13
2018-04-27T02:55:35.362Z,3.47
2018-04-27T02:58:04.467Z,4.30
2018-04-27T03:00:33.586Z,4.70
2018-04-27T03:03:03.473Z,3.80
2018-04-27T03:05:32.572Z,3.47
2018-04-27T03:08:01.710Z,4.10
2018-04-27T03:10:30.833Z,4.10
2018-04-27T03:12:59.954Z,4.12
2018-04-27T03:15:29.066Z,3.97
2018-04-27T03:17:58.173Z,3.97
2018-04-27T03:20:27.271Z,3.53
2018-04-27T03:22:57.158Z,3.78
2018-04-27T03:25:26.262Z,3.50
2018-04-27T03:27:55.383Z,3.87
2018-04-27T03:30:24.605Z,3.90
2018-04-27T03:32:53.708Z,3.87
2018-04-27T03:35:22.929Z,4.07
2018-04-27T03:37:52.053Z,4.03
2018-04-27T03:40:21.151Z,3.60
2018-04-27T03:42:50.556Z,3.83
2018-04-27T03:45:20.511Z,3.60
2018-04-27T03:47:49.584Z,4.30
2018-04-27T03:50:18.716Z,3.30
2018-04-27T03:52:48.607Z,4.30
2018-04-27T03:55:17.729Z,4.03
2018-04-27T03:57:47.093Z,3.87
2018-04-27T04:00:34.686Z,3.27
2018-04-27T04:03:21.564Z,3.57
2018-04-27T04:05:50.745Z,4.00
2018-04-27T04:08:20.600Z,3.60
2018-04-27T04:10:49.724Z,4.43
2018-04-27T04:13:19.638Z,3.87
2018-04-27T04:15:49.218Z,4.00
2018-04-27T04:18:19.835Z,3.20
2018-04-27T04:20:50.371Z,3.25
2018-04-27T04:23:21.444Z,3.50
2018-04-27T04:25:50.617Z,3.72
2018-04-27T04:28:19.740Z,3.90
2018-04-27T04:30:48.861Z,4.03
2018-04-27T04:33:17.963Z,4.00
2018-04-27T04:35:47.096Z,4.30
2018-04-27T04:38:16.270Z,3.80
2018-04-27T04:40:46.119Z,3.97
2018-04-27T04:43:15.241Z,4.07
2018-04-27T04:45:46.041Z,4.60
2018-04-27T04:48:15.165Z,4.40
2018-04-27T04:50:46.094Z,3.82
2018-04-27T04:53:15.194Z,4.63
2018-04-27T04:55:46.069Z,3.60
2018-04-27T04:58:15.968Z,3.50
2018-04-27T05:00:46.546Z,4.43
2018-04-27T05:03:15.655Z,5.13
2018-04-27T05:05:46.094Z,4.62
2018-04-27T05:08:15.248Z,4.90
2018-04-27T05:10:45.366Z,4.28
2018-04-27T05:13:14.454Z,4.40
2018-04-27T05:15:43.571Z,4.40
2018-04-27T05:18:20.317Z,5.00
2018-04-27T05:20:49.488Z,5.40
2018-04-27T05:23:18.602Z,5.80
2018-04-27T05:25:48.481Z,6.13
2018-04-27T05:28:17.574Z,5.50
2018-04-27T05:30:46.720Z,6.43
2018-04-27T05:33:16.580Z,5.93
2018-04-27T05:35:45.706Z,6.10
2018-04-27T05:38:14.822Z,7.23
2018-04-27T05:40:46.037Z,6.43
2018-04-27T05:43:15.192Z,8.30
2018-04-27T05:45:46.203Z,7.24
2018-04-27T05:48:16.349Z,7.10
2018-04-27T05:50:45.497Z,9.80
2018-04-27T05:53:14.645Z,11.63
2018-04-27T05:55:43.779Z,8.23
2018-04-27T05:58:12.942Z,6.43
2018-04-27T06:00:42.066Z,5.63
2018-04-27T06:03:11.956Z,5.87
2018-04-27T06:05:41.137Z,5.27
2018-04-27T06:08:10.411Z,5.00
2018-04-27T06:10:40.285Z,5.30
2018-04-27T06:13:09.439Z,6.20
2018-04-27T06:15:39.332Z,4.60
2018-04-27T06:18:08.463Z,5.00
2018-04-27T06:20:38.344Z,4.67
2018-04-27T06:23:08.261Z,4.87
2018-04-27T06:25:38.261Z,4.60
2018-04-27T06:28:08.081Z,3.90
2018-04-27T06:30:37.233Z,5.10
2018-04-27T06:33:06.357Z,4.20
2018-04-27T06:35:35.474Z,4.10
2018-04-27T06:38:04.628Z,5.00
2018-04-27T06:40:33.843Z,5.63
2018-04-27T06:43:03.234Z,4.67
2018-04-27T06:45:32.382Z,4.87
2018-04-27T06:50:37.521Z,4.97
2018-04-27T06:53:07.408Z,4.00
2018-04-27T06:55:36.537Z,5.23
2018-04-27T06:58:05.667Z,4.50
2018-04-27T07:00:35.576Z,4.77
2018-04-27T07:03:04.754Z,5.33
2018-04-27T07:05:34.674Z,5.00
2018-04-27T07:08:04.117Z,3.87
2018-04-27T07:10:33.219Z,4.37
2018-04-27T07:13:02.363Z,4.25
2018-04-27T07:15:31.482Z,4.57
2018-04-27T07:18:01.397Z,4.03
2018-04-27T07:20:31.289Z,5.30
2018-04-27T07:23:00.460Z,3.87
2018-04-27T07:25:29.582Z,3.87
2018-04-27T07:27:58.721Z,3.50
2018-04-27T07:30:27.825Z,3.30
2018-04-27T07:32:56.970Z,3.90
2018-04-27T07:35:26.106Z,3.93
2018-04-27T07:37:55.240Z,4.37
2018-04-27T07:40:24.378Z,3.70
2018-04-27T07:42:54.255Z,3.80
2018-04-27T07:45:23.461Z,4.00
2018-04-27T07:47:53.319Z,4.40
2018-04-27T07:50:22.475Z,3.40
2018-04-27T07:52:51.582Z,4.37
2018-04-27T07:55:21.117Z,4.07
2018-04-27T07:57:50.149Z,3.37
2018-04-27T08:00:19.327Z,3.77
2018-04-27T08:02:49.169Z,3.50
2018-04-27T08:05:18.349Z,3.63
2018-04-27T08:07:47.491Z,3.83
2018-04-27T08:10:16.608Z,3.00
2018-04-27T08:12:47.310Z,3.72
2018-04-27T08:15:16.470Z,2.93
2018-04-27T08:17:46.417Z,2.90
2018-04-27T08:20:22.091Z,2.83
2018-04-27T08:22:52.019Z,2.90
2018-04-27T08:25:21.897Z,3.07
2018-04-27T08:27:51.319Z,3.10
2018-04-27T08:30:20.461Z,3.83
2018-04-27T08:32:49.739Z,2.60
2018-04-27T08:35:18.950Z,2.77
2018-04-27T08:37:48.069Z,3.40
2018-04-27T08:40:17.197Z,3.20
2018-04-27T08:42:46.343Z,2.50
2018-04-27T08:45:15.477Z,2.50
2018-04-27T08:47:45.920Z,3.47
2018-04-27T08:50:15.012Z,2.83
2018-04-27T08:52:44.160Z,2.13
2018-04-27T08:55:13.313Z,2.30
2018-04-27T08:57:43.212Z,2.57
2018-04-27T09:00:13.072Z,2.40
2018-04-27T09:02:42.331Z,2.50
2018-04-27T09:05:12.165Z,2.13
2018-04-27T09:07:41.281Z,2.50
2018-04-27T09:10:10.402Z,2.50
2018-04-27T09:12:39.602Z,2.10
2018-04-27T09:15:09.473Z,1.90
2018-04-27T09:17:39.399Z,2.67
2018-04-27T09:20:09.277Z,2.33
2018-04-27T09:22:38.405Z,2.40
2018-04-27T09:25:07.550Z,2.53
2018-04-27T09:27:36.673Z,2.80
2018-04-27T09:30:05.891Z,2.40
2018-04-27T09:32:35.240Z,2.37
2018-04-27T09:35:04.380Z,2.00
2018-04-27T09:37:33.475Z,2.20
2018-04-27T09:40:03.366Z,2.10
2018-04-27T09:42:32.491Z,2.77
2018-04-27T09:45:02.408Z,2.97
2018-04-27T09:47:32.299Z,2.03
2018-04-27T09:50:01.419Z,2.47
2018-04-27T09:52:31.344Z,2.57
2018-04-27T09:55:01.230Z,3.08
2018-04-27T09:57:30.422Z,2.47
2018-04-27T09:59:59.499Z,2.20
2018-04-27T10:02:28.630Z,2.70
2018-04-27T10:04:57.781Z,2.30
2018-04-27T10:07:26.892Z,2.83
2018-04-27T10:09:56.802Z,2.65
2018-04-27T10:12:25.944Z,3.17
2018-04-27T10:14:55.173Z,2.95
2018-04-27T10:17:24.272Z,2.33
2018-04-27T10:19:54.232Z,2.37
2018-04-27T10:22:23.330Z,2.23
2018-04-27T10:24:52.464Z,2.70
2018-04-27T10:27:22.340Z,2.30
2018-04-27T10:29:51.523Z,2.22
2018-04-27T10:32:20.642Z,3.00
2018-04-27T10:34:49.799Z,2.73
2018-04-27T10:37:18.908Z,2.47
2018-04-27T10:39:48.005Z,2.90
2018-04-27T10:42:17.144Z,3.67
2018-04-27T10:44:47.024Z,3.23
2018-04-27T10:47:16.192Z,2.70
2018-04-27T10:49:47.077Z,3.00
2018-04-27T10:52:16.244Z,3.07
2018-04-27T10:54:46.374Z,2.20
2018-04-27T10:57:15.478Z,2.50
2018-04-27T10:59:44.658Z,2.60
2018-04-27T11:02:13.808Z,2.90
2018-04-27T11:04:43.676Z,2.70
2018-04-27T11:07:12.831Z,2.33
2018-04-27T11:09:42.785Z,2.77
2018-04-27T11:12:12.617Z,2.80
2018-04-27T11:14:41.762Z,2.47
2018-04-27T11:17:10.895Z,2.50
2018-04-27T11:19:40.000Z,2.57
2018-04-27T11:22:09.167Z,2.90
2018-04-27T11:24:39.101Z,3.60
2018-04-27T11:27:08.269Z,3.13
2018-04-27T11:29:38.160Z,2.90
2018-04-27T11:32:07.265Z,2.40
2018-04-27T11:34:41.297Z,2.90
2018-04-27T11:37:11.185Z,2.40
2018-04-27T11:39:41.077Z,2.93
2018-04-27T11:42:10.222Z,2.60
2018-04-27T11:44:39.385Z,2.77
2018-04-27T11:47:08.542Z,2.63
2018-04-27T11:49:37.714Z,2.73
2018-04-27T11:52:06.827Z,3.17
2018-04-27T11:54:35.955Z,3.20
2018-04-27T11:57:05.150Z,2.63
2018-04-27T11:59:34.298Z,2.43
2018-04-27T12:02:04.209Z,2.63
2018-04-27T12:04:34.084Z,2.80
2018-04-27T12:07:03.277Z,3.25
2018-04-27T12:09:32.370Z,2.77
2018-04-27T12:12:03.421Z,2.77
2018-04-27T12:14:32.594Z,2.90
2018-04-27T12:17:02.304Z,2.83
2018-04-27T12:19:31.408Z,2.67
2018-04-27T12:22:00.532Z,2.60
2018-04-27T12:24:29.663Z,2.80
2018-04-27T12:26:58.768Z,3.10
2018-04-27T12:29:27.893Z,2.50
2018-04-27T12:31:57.066Z,3.03
2018-04-27T12:34:26.133Z,2.60
2018-04-27T12:36:56.067Z,3.05
2018-04-27T12:39:25.204Z,2.57
2018-04-27T12:41:55.439Z,2.77
2018-04-27T12:44:24.542Z,2.70
2018-04-27T12:46:53.669Z,2.70
2018-04-27T12:49:22.785Z,2.37
2018-04-27T12:51:51.900Z,2.62
2018-04-27T12:54:21.030Z,2.73
2018-04-27T12:56:50.159Z,2.57
2018-04-27T12:59:19.305Z,2.67
2018-04-27T13:01:48.415Z,2.97
2018-04-27T13:04:17.566Z,2.67
2018-04-27T13:06:46.676Z,2.40
2018-04-27T13:09:16.569Z,2.77
2018-04-27T13:11:45.664Z,2.53
2018-04-27T13:14:14.817Z,2.43
2018-04-27T13:16:43.953Z,2.63
2018-04-27T13:19:14.553Z,2.62
2018-04-27T13:21:44.474Z,2.43
2018-04-27T13:24:14.578Z,2.33
2018-04-27T13:26:43.706Z,3.17
2018-04-27T13:29:13.731Z,2.70
2018-04-27T13:31:42.867Z,2.57
2018-04-27T13:34:11.979Z,2.50
2018-04-27T13:36:41.096Z,3.37
2018-04-27T13:39:10.220Z,3.00
2018-04-27T13:41:39.342Z,2.50
2018-04-27T13:44:08.452Z,3.17
2018-04-27T13:46:37.562Z,2.87
2018-04-27T13:49:06.734Z,2.30
2018-04-27T13:51:36.702Z,2.73
2018-04-27T13:54:05.854Z,2.83
2018-04-27T13:56:34.952Z,2.50
2018-04-27T13:59:04.064Z,2.87
2018-04-27T14:01:33.195Z,2.77
2018-04-27T14:04:03.150Z,3.50
2018-04-27T14:06:32.248Z,2.80
2018-04-27T14:09:01.386Z,3.07
2018-04-27T14:11:30.500Z,3.10
2018-04-27T14:14:00.415Z,2.50
2018-04-27T14:16:30.356Z,2.67
2018-04-27T14:19:00.057Z,3.23
2018-04-27T14:21:29.236Z,3.20
2018-04-27T14:23:58.301Z,3.37
2018-04-27T14:26:27.426Z,3.00
2018-04-27T14:28:57.281Z,2.80
2018-04-27T14:31:26.387Z,3.10
2018-04-27T14:33:55.524Z,3.17
2018-04-27T14:36:25.401Z,3.47
2018-04-27T14:38:54.548Z,3.03
2018-04-27T14:41:24.453Z,2.78
2018-04-27T14:43:54.326Z,3.57
2018-04-27T14:46:23.522Z,2.62
2018-04-27T14:48:52.636Z,2.70
2018-04-27T14:51:21.760Z,2.60
2018-04-27T14:53:51.635Z,2.07
2018-04-27T14:56:20.770Z,3.03
2018-04-27T14:58:50.661Z,2.90
2018-04-27T15:01:19.836Z,2.60
2018-04-27T15:03:48.936Z,3.13
2018-04-27T15:06:18.040Z,3.12
2018-04-27T15:08:47.171Z,2.50
2018-04-27T15:11:17.074Z,2.60
2018-04-27T15:13:46.249Z,2.87
2018-04-27T15:16:15.389Z,2.40
2018-04-27T15:18:45.293Z,2.30
2018-04-27T15:21:15.187Z,2.70
2018-04-27T15:23:44.306Z,2.73
2018-04-27T15:26:13.862Z,2.43
2018-04-27T15:28:42.988Z,2.30
2018-04-27T15:31:12.097Z,2.33
2018-04-27T15:33:42.072Z,2.23
2018-04-27T15:36:11.143Z,2.13
2018-04-27T15:38:40.260Z,2.57
2018-04-27T15:41:09.398Z,2.70
2018-04-27T15:43:39.378Z,2.60
2018-04-27T15:46:08.507Z,2.13
2018-04-27T15:48:37.644Z,3.13
2018-04-27T15:51:07.052Z,2.60
2018-04-27T15:53:36.955Z,2.47
2018-04-27T15:56:06.149Z,2.63
2018-04-27T15:58:35.286Z,2.60
2018-04-27T16:01:04.378Z,2.30
2018-04-27T16:03:33.520Z,2.87
2018-04-27T16:06:03.416Z,2.90
2018-04-27T16:08:32.556Z,2.83
2018-04-27T16:11:01.664Z,2.43
2018-04-27T16:13:35.404Z,2.73
2018-04-27T16:16:04.567Z,2.50
2018-04-27T16:18:33.643Z,2.10
2018-04-27T16:21:03.053Z,2.30
2018-04-27T16:23:32.166Z,2.50
2018-04-27T16:26:01.289Z,2.30
2018-04-27T16:28:30.406Z,2.58
2018-04-27T16:31:00.292Z,2.43
2018-04-27T16:33:29.412Z,2.50
2018-04-27T16:35:58.542Z,4.73
2018-04-27T16:38:28.465Z,2.70
2018-04-27T16:40:57.581Z,2.67
2018-04-27T16:43:26.703Z,2.67
2018-04-27T16:45:55.821Z,2.43
2018-04-27T16:48:25.122Z,2.47
2018-04-27T16:50:54.591Z,2.30
2018-04-27T16:53:23.854Z,2.43
2018-04-27T16:55:53.746Z,2.78
2018-04-27T16:58:22.882Z,2.08
2018-04-27T17:00:52.028Z,2.27
2018-04-27T17:03:21.177Z,1.92
2018-04-27T17:05:50.293Z,2.30
2018-04-27T17:08:19.646Z,2.20
2018-04-27T17:10:49.534Z,2.63
2018-04-27T17:13:18.682Z,2.92
2018-04-27T17:15:47.825Z,2.77
2018-04-27T17:18:16.949Z,2.70
2018-04-27T17:20:46.844Z,2.30
2018-04-27T17:23:15.937Z,2.53
2018-04-27T17:25:45.083Z,2.77
2018-04-27T17:28:15.115Z,4.40
2018-04-27T17:30:44.243Z,2.87
2018-04-27T17:33:14.769Z,2.60
2018-04-27T17:35:43.921Z,2.50
2018-04-27T17:38:15.841Z,2.62
2018-04-27T17:40:45.729Z,2.15
2018-04-27T17:43:14.896Z,2.97
2018-04-27T17:45:44.099Z,2.47
2018-04-27T17:48:14.920Z,3.00
2018-04-27T17:50:44.049Z,3.10
2018-04-27T17:53:14.802Z,2.97
2018-04-27T17:55:44.026Z,3.30
2018-04-27T17:58:15.825Z,3.62
2018-04-27T18:00:45.033Z,3.60
2018-04-27T18:03:14.146Z,3.23
2018-04-27T18:05:43.298Z,3.50
2018-04-27T18:08:14.457Z,4.20
2018-04-27T18:10:43.623Z,3.63
2018-04-27T18:13:14.015Z,3.70
2018-04-27T18:15:43.148Z,3.10
2018-04-27T18:18:13.172Z,3.60
2018-04-27T18:20:42.257Z,3.47
2018-04-27T18:23:11.351Z,3.23
2018-04-27T18:25:41.276Z,3.20
2018-04-27T18:28:11.155Z,3.53
2018-04-27T18:30:40.352Z,3.53
2018-04-27T18:33:10.255Z,3.80
2018-04-27T18:35:39.434Z,3.57
2018-04-27T18:38:09.247Z,3.73
2018-04-27T18:40:38.400Z,3.73
2018-04-27T18:43:07.540Z,4.13
2018-04-27T18:45:37.247Z,4.03
2018-04-27T18:48:07.185Z,3.63
2018-04-27T18:50:36.376Z,3.33
2018-04-27T18:53:05.532Z,4.30
2018-04-27T18:55:36.225Z,3.47
2018-04-27T18:58:05.450Z,3.87
2018-04-27T19:00:35.181Z,3.60
2018-04-27T19:03:04.405Z,3.67
2018-04-27T19:05:34.259Z,3.40
2018-04-27T19:08:03.420Z,3.50
2018-04-27T19:10:37.334Z,3.60
2018-04-27T19:13:07.124Z,4.33
2018-04-27T19:15:36.277Z,4.03
2018-04-27T19:18:05.405Z,3.33
2018-04-27T19:20:36.390Z,3.17
2018-04-27T19:23:15.751Z,4.60
2018-04-27T19:25:46.839Z,3.43
2018-04-27T19:28:16.742Z,3.43
2018-04-27T19:30:46.688Z,3.30
2018-04-27T19:33:15.829Z,2.93
2018-04-27T19:35:44.969Z,3.27
2018-04-27T19:38:15.045Z,3.50
2018-04-27T19:40:44.217Z,3.67
2018-04-27T19:43:14.080Z,4.03
2018-04-27T19:45:43.267Z,3.60
2018-04-27T19:48:14.433Z,3.50
2018-04-27T19:50:43.580Z,4.83
2018-04-27T19:53:14.046Z,4.40
2018-04-27T19:55:44.727Z,3.67
2018-04-27T19:58:15.162Z,3.72
2018-04-27T20:00:44.297Z,4.00
2018-04-27T20:03:14.943Z,3.20
2018-04-27T20:05:46.871Z,4.10
2018-04-27T20:08:28.213Z,4.30
2018-04-27T20:10:57.398Z,4.00
2018-04-27T20:13:26.487Z,3.62
2018-04-27T20:16:00.297Z,3.47
2018-04-27T20:18:30.250Z,3.13
2018-04-27T20:21:01.362Z,3.80
2018-04-27T20:23:34.480Z,3.55
2018-04-27T20:26:05.451Z,3.00
2018-04-27T20:28:38.501Z,3.40
2018-04-27T20:31:08.422Z,3.50
2018-04-27T20:33:37.735Z,3.00
2018-04-27T20:36:07.659Z,3.77
2018-04-27T20:38:36.774Z,2.80
2018-04-27T20:41:14.259Z,2.80
2018-04-27T20:43:44.231Z,2.70
2018-04-27T20:46:14.928Z,3.50
2018-04-27T20:48:44.898Z,3.33
2018-04-27T20:51:14.201Z,2.73
2018-04-27T20:54:13.484Z,3.47
2018-04-27T20:56:43.429Z,2.97
2018-04-27T20:59:15.395Z,4.93
2018-04-27T21:01:46.385Z,7.23
2018-04-27T21:04:16.079Z,3.60
2018-04-27T21:06:46.002Z,2.70
2018-04-27T21:09:16.596Z,2.53
2018-04-27T21:11:46.402Z,2.73
2018-04-27T21:14:15.540Z,2.73
2018-04-27T21:16:45.629Z,2.90
2018-04-27T21:19:14.772Z,3.57
2018-04-27T21:21:43.956Z,3.10
2018-04-27T21:24:14.267Z,3.95
2018-04-27T21:26:44.196Z,3.67
2018-04-27T21:29:17.416Z,3.90
2018-04-27T21:31:46.615Z,4.07
2018-04-27T21:34:15.759Z,3.30
2018-04-27T21:36:50.437Z,3.23
2018-04-27T21:39:26.038Z,3.27
2018-04-27T21:42:01.190Z,3.20
2018-04-27T21:44:35.191Z,2.90
2018-04-27T21:47:07.975Z,3.10
2018-04-27T21:49:37.903Z,2.50
2018-04-27T21:55:12.301Z,3.17
2018-04-27T21:57:57.145Z,3.00
2018-04-27T22:00:26.389Z,2.53
2018-04-27T22:03:18.242Z,3.10
2018-04-27T22:06:10.112Z,3.50
2018-04-27T22:08:45.749Z,3.10
2018-04-27T22:11:22.539Z,2.60
2018-04-27T22:13:52.447Z,2.90
2018-04-27T22:16:36.266Z,2.60
2018-04-27T22:19:05.419Z,2.97
2018-04-27T22:21:42.960Z,2.80
2018-04-27T22:24:12.851Z,3.03
2018-04-27T22:26:45.226Z,2.70
2018-04-27T22:29:28.934Z,2.10
2018-04-27T22:35:22.823Z,2.23
2018-04-27T22:37:53.471Z,2.90
2018-04-27T22:43:21.243Z,2.20
2018-04-27T22:46:06.054Z,2.63
2018-04-27T22:51:42.795Z,2.63
2018-04-27T22:57:39.314Z,2.37
2018-04-27T23:00:15.072Z,2.80
2018-04-27T23:02:44.882Z,2.60
2018-04-27T23:05:32.589Z,3.50
2018-04-27T23:08:06.220Z,2.07
2018-04-27T23:14:10.571Z,2.97
2018-04-27T23:16:48.354Z,2.40
2018-04-27T23:19:19.293Z,2.37
2018-04-27T23:22:03.092Z,2.37
2018-04-27T23:24:37.603Z,2.20
2018-04-27T23:27:06.789Z,2.50
2018-04-27T23:29:39.721Z,2.30
2018-04-27T23:32:10.183Z,2.93
2018-04-27T23:34:39.314Z,2.60
2018-04-27T23:37:08.500Z,2.40
2018-04-27T23:39:37.736Z,2.15
2018-04-27T23:42:07.716Z,2.53
2018-04-27T23:44:36.863Z,2.10
2018-04-27T23:47:06.054Z,2.80
2018-04-27T23:49:35.225Z,2.45
2018-04-27T23:52:04.402Z,2.60
2018-04-27T23:54:33.578Z,2.45
2018-04-27T23:57:02.783Z,2.40
2018-04-27T23:59:40.354Z,2.55
